Time;durP1;ratioP1;P1;durP2;ratioP2;P2;SDS_P1;SDS_P2;PMS_P1;PMS_P2;Temp;Humidity;BMP_temperature;BMP_pressure;BME280_temperature;BME280_humidity;BME280_pressure;Samples;Min_cycle;Max_cycle;Signal;HPM_P1;HPM_P2
2022/04/15 00:02:02;;;;;;;22.73;11.02;;;;;;;15.70;100.00;96724.94;4976354;28;20250;-69
2022/04/15 00:04:30;;;;;;;22.48;10.98;;;;;;;15.91;100.00;96721.16;4977277;28;20216;-69
2022/04/15 00:06:57;;;;;;;25.13;11.52;;;;;;;15.92;100.00;96714.81;4975922;28;20227;-69
2022/04/15 00:09:23;;;;;;;24.58;11.82;;;;;;;15.91;100.00;96710.53;4977323;28;20207;-69
2022/04/15 00:11:51;;;;;;;28.83;12.43;;;;;;;15.76;100.00;96703.72;4976693;28;20703;-69
2022/04/15 00:14:19;;;;;;;22.05;11.02;;;;;;;15.92;100.00;96701.53;4975971;28;20219;-69
2022/04/15 00:16:46;;;;;;;23.13;11.98;;;;;;;15.79;100.00;96707.81;4972609;28;20235;-69
2022/04/15 00:19:13;;;;;;;27.17;11.60;;;;;;;15.85;100.00;96713.16;4975905;28;20440;-69
2022/04/15 00:21:40;;;;;;;26.73;12.20;;;;;;;15.58;100.00;96710.53;4976357;28;20215;-69
2022/04/15 00:24:07;;;;;;;22.65;10.63;;;;;;;15.56;100.00;96717.91;4974862;28;20202;-69
2022/04/15 00:26:34;;;;;;;25.92;11.23;;;;;;;15.62;100.00;96709.16;4977408;28;20294;-69
2022/04/15 00:29:00;;;;;;;24.55;11.90;;;;;;;15.06;100.00;96696.91;4975780;28;21222;-69
2022/04/15 00:31:28;;;;;;;30.00;12.88;;;;;;;15.37;100.00;96697.34;4975529;28;20207;-69
2022/04/15 00:33:55;;;;;;;28.42;11.48;;;;;;;15.06;100.00;96688.94;4976110;28;20199;-69
2022/04/15 00:36:21;;;;;;;24.25;11.35;;;;;;;15.24;100.00;96691.16;4976313;28;20211;-69
2022/04/15 00:38:48;;;;;;;23.00;11.27;;;;;;;15.30;100.00;96686.69;4975783;28;21282;-69
2022/04/15 00:41:15;;;;;;;20.17;10.57;;;;;;;15.06;100.00;96686.28;4976145;28;20207;-69
2022/04/15 00:43:42;;;;;;;25.35;11.93;;;;;;;15.18;100.00;96692.69;4976333;28;20211;-69
2022/04/15 00:46:09;;;;;;;24.02;10.85;;;;;;;15.04;100.00;96685.66;4975645;28;20218;-69
2022/04/15 00:48:37;;;;;;;25.48;12.63;;;;;;;15.37;100.00;96694.69;4974879;28;20227;-69
2022/04/15 00:51:05;;;;;;;22.17;11.48;;;;;;;15.33;100.00;96691.59;4975775;28;20207;-69
2022/04/15 00:53:33;;;;;;;24.80;11.57;;;;;;;15.31;100.00;96692.81;4974839;28;20214;-69
2022/04/15 00:56:01;;;;;;;26.83;11.55;;;;;;;15.34;100.00;96682.63;4975274;28;20210;-69
2022/04/15 00:58:29;;;;;;;22.05;11.60;;;;;;;15.28;100.00;96678.09;4975395;28;20326;-68
2022/04/15 01:00:58;;;;;;;22.42;10.80;;;;;;;15.24;99.94;96681.34;4977239;28;20226;-69
2022/04/15 01:03:24;;;;;;;20.85;9.57;;;;;;;15.11;99.43;96691.00;4974616;28;20203;-69
2022/04/15 01:05:57;;;;;;;20.40;10.13;;;;;;;15.42;98.41;96703.72;4975421;28;20211;-69
2022/04/15 01:08:26;;;;;;;26.15;11.32;;;;;;;15.19;100.00;96704.16;4975397;28;20653;-69
2022/04/15 01:10:55;;;;;;;19.38;10.13;;;;;;;14.87;100.00;96697.56;4974973;28;20215;-69
2022/04/15 01:13:24;;;;;;;20.58;8.38;;;;;;;15.08;98.99;96705.47;4975575;28;20257;-69
2022/04/15 01:15:52;;;;;;;15.63;7.85;;;;;;;14.72;99.67;96707.44;4975518;28;20688;-69
2022/04/15 01:18:18;;;;;;;19.85;7.90;;;;;;;14.74;97.41;96713.38;4972072;28;20238;-69
2022/04/15 01:20:48;;;;;;;17.73;8.02;;;;;;;15.01;99.39;96719.75;4975037;28;20222;-69
2022/04/15 01:23:16;;;;;;;23.25;10.60;;;;;;;15.05;100.00;96718.34;4975680;28;20246;-69
2022/04/15 01:25:43;;;;;;;23.13;11.05;;;;;;;14.92;100.00;96713.75;4974484;28;20691;-69
2022/04/15 01:28:10;;;;;;;23.08;11.40;;;;;;;14.91;100.00;96713.94;4974315;28;20238;-69
2022/04/15 01:30:37;;;;;;;19.00;9.73;;;;;;;14.71;100.00;96729.69;4975307;28;20873;-69
2022/04/15 01:33:03;;;;;;;21.10;9.20;;;;;;;14.75;100.00;96738.91;4974860;28;20214;-69
2022/04/15 01:35:30;;;;;;;23.20;10.13;;;;;;;14.88;100.00;96727.56;4974667;28;20301;-69
2022/04/15 01:37:59;;;;;;;26.67;10.85;;;;;;;14.86;100.00;96730.44;4974782;28;20227;-69
2022/04/15 01:40:27;;;;;;;23.45;10.43;;;;;;;14.95;100.00;96736.44;4974549;28;20231;-69
2022/04/15 01:42:54;;;;;;;21.40;10.02;;;;;;;14.81;100.00;96734.66;4974485;28;20207;-69
2022/04/15 01:45:20;;;;;;;19.63;8.77;;;;;;;14.52;100.00;96731.31;4975233;28;20211;-69
2022/04/15 01:47:47;;;;;;;19.77;8.98;;;;;;;14.79;100.00;96734.88;4974582;28;20581;-69
2022/04/15 01:50:13;;;;;;;19.88;8.55;;;;;;;14.77;100.00;96746.69;4974919;28;20200;-69
2022/04/15 01:52:40;;;;;;;20.77;9.48;;;;;;;14.88;99.37;96739.03;4974125;28;20204;-69
2022/04/15 01:55:07;;;;;;;21.92;9.55;;;;;;;14.97;98.75;96742.34;4974882;28;20210;-69
2022/04/15 01:57:35;;;;;;;23.67;9.52;;;;;;;15.08;98.65;96737.34;4974121;28;20242;-69
2022/04/15 02:00:01;;;;;;;18.25;8.45;;;;;;;14.99;97.92;96735.03;4974383;28;20223;-69
2022/04/15 02:02:28;;;;;;;17.95;8.70;;;;;;;14.97;97.60;96742.34;4974380;28;20230;-69
2022/04/15 02:04:55;;;;;;;19.67;8.63;;;;;;;15.06;96.62;96741.19;4974134;28;20212;-69
2022/04/15 02:07:21;;;;;;;20.38;9.15;;;;;;;14.90;98.16;96736.97;4974364;28;20227;-69
2022/04/15 02:09:48;;;;;;;20.13;9.00;;;;;;;14.60;99.93;96734.69;4973892;28;20663;-69
2022/04/15 02:12:14;;;;;;;20.95;9.30;;;;;;;14.61;100.00;96731.00;4973609;28;20676;-69
2022/04/15 02:14:42;;;;;;;18.25;9.25;;;;;;;14.84;100.00;96729.81;4974468;28;20207;-69
2022/04/15 02:17:09;;;;;;;14.98;7.40;;;;;;;14.74;97.86;96737.25;4971546;28;20231;-69
2022/04/15 02:19:35;;;;;;;22.23;8.85;;;;;;;14.55;98.86;96737.09;4974087;28;20227;-69
2022/04/15 02:22:02;;;;;;;16.90;8.50;;;;;;;14.53;98.22;96738.28;4974245;28;20281;-69
2022/04/15 02:24:28;;;;;;;15.65;8.07;;;;;;;14.60;97.55;96744.47;4974333;28;20215;-69
2022/04/15 02:26:55;;;;;;;17.17;8.85;;;;;;;14.46;99.81;96740.03;4973838;28;20234;-69
2022/04/15 02:29:21;;;;;;;19.70;8.70;;;;;;;14.66;100.00;96744.53;4970883;28;21208;-68
2022/04/15 02:31:49;;;;;;;20.55;8.60;;;;;;;14.71;99.77;96742.97;4974734;28;20260;-68
2022/04/15 02:34:16;;;;;;;22.50;8.10;;;;;;;14.44;98.48;96744.72;4973894;28;20630;-68
2022/04/15 02:36:42;;;;;;;16.33;8.30;;;;;;;14.54;98.25;96756.66;4973483;28;20219;-68
2022/04/15 02:39:11;;;;;;;19.13;8.73;;;;;;;14.58;98.56;96757.09;4976951;28;20215;-68
2022/04/15 02:41:39;;;;;;;13.82;7.75;;;;;;;14.41;100.00;96750.38;4977960;28;20770;-68
2022/04/15 02:44:07;;;;;;;16.80;8.82;;;;;;;14.62;100.00;96756.53;4976312;28;20211;-68
2022/04/15 02:46:34;;;;;;;16.50;7.75;;;;;;;14.47;99.84;96755.75;4977277;28;20203;-69
2022/04/15 02:49:02;;;;;;;19.65;8.93;;;;;;;14.77;99.16;96754.63;4977268;28;20740;-68
2022/04/15 02:51:29;;;;;;;17.27;8.77;;;;;;;14.60;100.00;96755.91;4977681;28;20204;-68
2022/04/15 02:53:55;;;;;;;19.92;7.82;;;;;;;14.53;100.00;96764.81;4976628;28;20226;-68
2022/04/15 02:56:22;;;;;;;16.52;8.60;;;;;;;14.61;100.00;96767.31;4977278;28;20259;-68
2022/04/15 02:58:48;;;;;;;16.55;8.27;;;;;;;14.55;100.00;96754.81;4977272;28;20227;-68
2022/04/15 03:01:15;;;;;;;25.35;9.77;;;;;;;14.58;100.00;96757.09;4977317;28;20227;-67
2022/04/15 03:03:41;;;;;;;16.20;7.97;;;;;;;14.63;100.00;96752.88;4976778;28;20210;-67
2022/04/15 03:06:09;;;;;;;20.02;7.95;;;;;;;14.57;100.00;96750.16;4976923;28;20210;-67
2022/04/15 03:08:35;;;;;;;16.45;7.80;;;;;;;14.22;100.00;96746.50;4976602;28;20239;-67
2022/04/15 03:11:02;;;;;;;17.08;7.97;;;;;;;14.46;100.00;96747.97;4977101;28;20686;-67
2022/04/15 03:13:29;;;;;;;18.95;8.65;;;;;;;14.51;100.00;96761.50;4976558;28;20218;-67
2022/04/15 03:15:55;;;;;;;16.27;8.23;;;;;;;14.54;100.00;96755.84;4976919;28;20203;-67
2022/04/15 03:18:22;;;;;;;20.83;8.70;;;;;;;14.46;100.00;96755.94;4974613;28;20227;-67
2022/04/15 03:20:50;;;;;;;20.55;9.98;;;;;;;14.54;100.00;96748.69;4976801;28;20227;-67
2022/04/15 03:23:19;;;;;;;16.38;8.00;;;;;;;14.75;100.00;96752.19;4976015;28;20211;-67
2022/04/15 03:25:46;;;;;;;17.63;8.32;;;;;;;14.59;100.00;96742.81;4976938;28;21010;-67
2022/04/15 03:28:13;;;;;;;15.38;7.93;;;;;;;14.41;100.00;96750.38;4977312;28;20704;-67
2022/04/15 03:30:39;;;;;;;17.45;7.47;;;;;;;14.50;100.00;96746.59;4976861;28;20239;-67
2022/04/15 03:33:06;;;;;;;17.40;8.23;;;;;;;14.56;100.00;96753.81;4975999;28;20208;-68
2022/04/15 03:35:32;;;;;;;22.00;8.05;;;;;;;14.56;100.00;96756.47;4977427;28;20217;-67
2022/04/15 03:37:59;;;;;;;14.50;7.78;;;;;;;14.57;100.00;96755.47;4976222;28;20245;-67
2022/04/15 03:40:27;;;;;;;17.27;7.80;;;;;;;14.56;99.30;96759.13;4975940;28;20227;-68
2022/04/15 03:42:56;;;;;;;16.50;7.28;;;;;;;14.63;99.59;96760.81;4976631;28;20207;-67
2022/04/15 03:45:23;;;;;;;16.85;7.78;;;;;;;14.63;99.36;96761.63;4977164;28;20302;-67
2022/04/15 03:47:50;;;;;;;18.67;8.23;;;;;;;14.63;99.02;96764.28;4975728;28;20280;-67
2022/04/15 03:50:17;;;;;;;16.55;7.97;;;;;;;14.58;99.11;96762.41;4976069;28;20199;-68
2022/04/15 03:52:46;;;;;;;15.50;7.90;;;;;;;14.68;98.84;96769.84;4976219;28;20626;-67
2022/04/15 03:55:14;;;;;;;19.27;8.10;;;;;;;14.68;99.17;96766.38;4976534;28;20207;-67
2022/04/15 03:57:42;;;;;;;19.45;8.45;;;;;;;14.73;99.39;96766.66;4976610;28;20632;-68
2022/04/15 04:00:11;;;;;;;17.23;8.05;;;;;;;14.76;99.62;96761.75;4976064;28;20234;-67
2022/04/15 04:02:37;;;;;;;22.70;7.75;;;;;;;14.63;98.94;96772.25;4975452;28;20212;-67
2022/04/15 04:05:05;;;;;;;14.55;6.72;;;;;;;14.56;98.27;96764.41;4975864;28;20214;-67
2022/04/15 04:07:31;;;;;;;14.27;7.72;;;;;;;14.47;98.58;96765.53;4976324;28;20334;-67
2022/04/15 04:09:58;;;;;;;12.02;6.50;;;;;;;14.22;99.20;96773.03;4976155;28;20200;-68
2022/04/15 04:12:24;;;;;;;14.15;6.45;;;;;;;14.45;98.09;96767.59;4975664;28;20223;-67
2022/04/15 04:14:52;;;;;;;15.38;7.53;;;;;;;14.58;98.92;96767.72;4976524;28;20203;-67
2022/04/15 04:17:19;;;;;;;20.27;7.55;;;;;;;14.53;98.61;96770.09;4972821;28;20231;-67
2022/04/15 04:19:46;;;;;;;16.10;7.28;;;;;;;14.52;99.34;96774.56;4975392;28;20283;-68
2022/04/15 04:22:13;;;;;;;16.33;7.68;;;;;;;14.48;98.49;96767.19;4975708;28;20199;-68
2022/04/15 04:24:39;;;;;;;15.98;7.18;;;;;;;14.36;99.33;96769.50;4976147;28;20237;-67
2022/04/15 04:27:06;;;;;;;15.80;7.60;;;;;;;14.28;99.00;96774.09;4975912;28;20301;-68
2022/04/15 04:29:32;;;;;;;14.63;6.88;;;;;;;14.07;97.50;96774.03;4976113;28;20631;-67
2022/04/15 04:32:00;;;;;;;14.85;6.55;;;;;;;14.29;96.92;96786.34;4975752;28;20199;-67
2022/04/15 04:34:27;;;;;;;19.55;7.35;;;;;;;14.18;97.53;96787.66;4974844;28;20211;-67
2022/04/15 04:36:53;;;;;;;21.27;7.68;;;;;;;14.03;99.47;96788.66;4975494;28;20742;-67
2022/04/15 04:39:21;;;;;;;17.80;7.65;;;;;;;13.94;100.00;96784.47;4975632;28;20219;-67
2022/04/15 04:41:47;;;;;;;11.65;6.68;;;;;;;13.99;100.00;96787.38;4975624;28;20227;-67
2022/04/15 04:44:14;;;;;;;15.88;7.70;;;;;;;14.04;99.22;96790.31;4975337;28;20211;-67
2022/04/15 04:46:40;;;;;;;12.02;6.22;;;;;;;14.12;98.00;96795.53;4975332;28;20211;-67
2022/04/15 04:49:08;;;;;;;17.55;6.70;;;;;;;14.29;97.62;96797.75;4975761;28;20226;-66
2022/04/15 04:51:35;;;;;;;11.93;6.47;;;;;;;13.76;98.65;96805.22;4975828;28;20204;-67
2022/04/15 04:54:01;;;;;;;13.27;6.43;;;;;;;14.01;98.56;96798.59;4974822;28;20203;-67
2022/04/15 04:56:28;;;;;;;15.98;7.07;;;;;;;14.05;99.73;96806.03;4975608;28;20214;-67
2022/04/15 04:58:54;;;;;;;11.23;6.00;;;;;;;13.85;99.28;96809.41;4975396;28;20207;-67
2022/04/15 05:01:21;;;;;;;13.07;6.40;;;;;;;14.00;98.45;96805.75;4974184;28;20227;-67
2022/04/15 05:03:47;;;;;;;10.77;5.80;;;;;;;14.12;97.94;96804.28;4975130;28;20215;-67
2022/04/15 05:06:15;;;;;;;14.48;6.53;;;;;;;14.25;98.81;96806.28;4975543;28;20207;-67
2022/04/15 05:08:41;;;;;;;13.35;6.38;;;;;;;14.21;99.25;96818.28;4974705;28;20231;-67
2022/04/15 05:11:08;;;;;;;19.08;7.35;;;;;;;14.40;98.72;96817.69;4975611;28;20210;-67
2022/04/15 05:13:34;;;;;;;18.73;7.70;;;;;;;14.52;98.72;96817.00;4974733;28;20206;-66
2022/04/15 05:16:01;;;;;;;17.05;8.30;;;;;;;14.59;98.82;96809.97;4974973;28;20211;-67
2022/04/15 05:18:27;;;;;;;20.27;8.93;;;;;;;14.68;98.76;96812.28;4974151;28;20711;-67
2022/04/15 05:20:54;;;;;;;19.17;8.20;;;;;;;14.64;99.35;96824.28;4975212;28;20779;-66
2022/04/15 05:23:22;;;;;;;16.75;7.57;;;;;;;14.87;99.37;96822.28;4974460;28;20218;-67
2022/04/15 05:25:48;;;;;;;16.67;7.40;;;;;;;14.78;98.29;96828.72;4974977;28;20210;-67
2022/04/15 05:28:14;;;;;;;13.63;7.32;;;;;;;14.68;98.20;96828.22;4975005;28;20605;-67
2022/04/15 05:30:41;;;;;;;14.15;6.90;;;;;;;14.60;99.49;96832.00;4974692;28;20699;-67
2022/04/15 05:33:07;;;;;;;18.48;6.75;;;;;;;14.63;99.25;96827.94;4974576;28;20207;-67
2022/04/15 05:35:35;;;;;;;15.55;7.35;;;;;;;14.71;99.49;96830.50;4974520;28;20260;-67
2022/04/15 05:38:01;;;;;;;15.15;7.88;;;;;;;14.79;99.08;96835.69;4974591;28;20242;-68
2022/04/15 05:40:29;;;;;;;14.55;7.22;;;;;;;14.96;99.68;96837.09;4974826;28;20762;-67
2022/04/15 05:42:55;;;;;;;16.40;6.82;;;;;;;14.65;100.00;96839.22;4973971;28;20200;-66
2022/04/15 05:45:22;;;;;;;13.25;6.88;;;;;;;15.01;99.52;96840.00;4974457;28;20211;-66
2022/04/15 05:47:48;;;;;;;14.90;7.38;;;;;;;15.04;98.57;96841.44;4974965;28;20235;-66
2022/04/15 05:50:15;;;;;;;16.98;7.65;;;;;;;15.14;98.74;96845.41;4974876;28;20199;-66
2022/04/15 05:52:41;;;;;;;14.13;7.28;;;;;;;15.16;96.67;96853.19;4974300;28;20234;-66
2022/04/15 05:55:08;;;;;;;17.80;7.00;;;;;;;15.15;95.52;96847.06;4974736;28;20882;-66
2022/04/15 05:57:36;;;;;;;12.80;6.63;;;;;;;15.35;93.11;96848.94;4974121;28;20234;-67
2022/04/15 06:00:05;;;;;;;12.57;6.28;;;;;;;15.36;93.44;96849.72;4974608;28;20567;-67
2022/04/15 06:02:31;;;;;;;13.38;6.78;;;;;;;15.32;93.82;96856.44;4974485;28;20299;-67
2022/04/15 06:04:58;;;;;;;14.32;6.88;;;;;;;15.47;91.53;96859.84;4974332;28;20202;-67
2022/04/15 06:07:25;;;;;;;12.80;6.13;;;;;;;15.35;91.55;96853.41;4974598;28;20227;-67
2022/04/15 06:09:51;;;;;;;12.15;6.50;;;;;;;15.49;93.49;96865.78;4975134;28;20203;-67
2022/04/15 06:12:21;;;;;;;18.15;6.65;;;;;;;15.46;91.68;96861.66;4975070;28;21135;-67
2022/04/15 06:14:49;;;;;;;15.63;6.20;;;;;;;15.77;91.13;96863.97;4978030;28;20207;-67
2022/04/15 06:17:21;;;;;;;16.02;6.22;;;;;;;15.73;89.51;96870.69;4978152;28;20226;-67
2022/04/15 06:19:48;;;;;;;15.02;6.50;;;;;;;15.51;90.21;96869.06;4977374;28;20579;-67
2022/04/15 06:22:14;;;;;;;12.85;6.70;;;;;;;15.63;89.91;96871.03;4978169;28;20268;-67
2022/04/15 06:24:41;;;;;;;13.07;6.50;;;;;;;15.75;91.00;96871.31;4978195;28;20590;-67
2022/04/15 06:27:07;;;;;;;13.73;6.03;;;;;;;15.65;88.80;96874.28;4978004;28;20234;-66
2022/04/15 06:29:33;;;;;;;10.80;5.50;;;;;;;15.76;89.00;96876.44;4978951;28;20636;-66
2022/04/15 06:32:01;;;;;;;13.93;6.28;;;;;;;15.99;89.16;96875.16;4978637;28;20226;-67
2022/04/15 06:34:28;;;;;;;13.18;6.72;;;;;;;15.80;88.13;96869.72;4977345;28;20207;-66
2022/04/15 06:36:54;;;;;;;14.70;6.78;;;;;;;15.81;87.91;96878.50;4979174;28;20726;-65
2022/04/15 06:39:21;;;;;;;14.68;6.65;;;;;;;15.85;88.29;96878.75;4980023;28;20293;-66
2022/04/15 06:41:47;;;;;;;15.82;6.03;;;;;;;15.87;86.28;96874.06;4979484;28;20238;-65
2022/04/15 06:44:14;;;;;;;12.07;6.40;;;;;;;16.00;86.53;96876.81;4979084;28;20207;-65
2022/04/15 06:46:40;;;;;;;14.90;6.82;;;;;;;16.13;86.24;96870.75;4979618;28;20199;-65
2022/04/15 06:49:08;;;;;;;12.38;6.43;;;;;;;16.32;86.87;96870.91;4980434;28;20211;-65
2022/04/15 06:51:35;;;;;;;11.18;5.68;;;;;;;16.18;86.71;96884.28;4980603;28;20290;-65
2022/04/15 06:54:01;;;;;;;13.00;6.32;;;;;;;16.14;84.60;96878.53;4979581;28;20195;-66
2022/04/15 06:56:28;;;;;;;11.57;5.95;;;;;;;15.92;85.29;96871.66;4980247;28;20218;-65
2022/04/15 06:58:54;;;;;;;16.55;6.50;;;;;;;16.02;84.85;96880.06;4980991;28;20235;-66
2022/04/15 07:01:23;;;;;;;15.52;6.15;;;;;;;16.12;82.10;96880.56;4980223;28;20750;-65
2022/04/15 07:03:50;;;;;;;11.25;6.07;;;;;;;16.06;81.73;96885.84;4978934;28;20293;-65
2022/04/15 07:06:18;;;;;;;14.68;6.72;;;;;;;16.71;80.21;96887.03;4979293;28;20215;-65
2022/04/15 07:08:44;;;;;;;19.83;6.82;;;;;;;16.66;82.11;96892.13;4979207;28;20227;-65
2022/04/15 07:11:10;;;;;;;14.20;6.22;;;;;;;16.70;79.43;96896.03;4979079;28;20203;-65
2022/04/15 07:13:37;;;;;;;13.02;5.43;;;;;;;16.48;78.73;96886.50;4978665;28;20219;-66
2022/04/15 07:16:04;;;;;;;14.23;6.43;;;;;;;16.68;80.35;96887.44;4980552;28;20203;-65
2022/04/15 07:18:30;;;;;;;11.10;5.90;;;;;;;16.74;76.64;96895.44;4979134;28;20223;-65
2022/04/15 07:20:57;;;;;;;13.77;6.40;;;;;;;16.63;76.01;96900.50;4978500;28;20227;-66
2022/04/15 07:23:24;;;;;;;13.95;6.10;;;;;;;16.51;77.68;96896.78;4977293;28;20211;-65
2022/04/15 07:25:51;;;;;;;13.88;6.35;;;;;;;16.64;77.33;96891.53;4980156;28;20207;-65
2022/04/15 07:28:17;;;;;;;12.75;6.25;;;;;;;16.80;76.63;96896.47;4979570;28;20223;-66
2022/04/15 07:30:44;;;;;;;13.90;6.00;;;;;;;16.67;77.80;96894.56;4979178;28;20203;-66
2022/04/15 07:33:10;;;;;;;11.68;6.15;;;;;;;16.91;76.92;96887.94;4978730;28;20207;-66
2022/04/15 07:35:37;;;;;;;11.95;5.63;;;;;;;16.98;76.15;96886.09;4979687;28;20211;-66
2022/04/15 07:38:03;;;;;;;12.70;6.45;;;;;;;17.03;75.56;96891.66;4979059;28;20234;-66
2022/04/15 07:40:31;;;;;;;16.52;6.68;;;;;;;17.19;76.49;96884.91;4979885;28;20206;-66
2022/04/15 07:42:58;;;;;;;12.48;5.75;;;;;;;17.03;76.22;96883.66;4979040;28;20231;-66
2022/04/15 07:45:25;;;;;;;10.90;5.65;;;;;;;16.88;75.16;96890.97;4979306;28;20204;-65
2022/04/15 07:47:51;;;;;;;15.15;6.82;;;;;;;17.05;75.40;96889.63;4977115;28;20597;-65
2022/04/15 07:50:21;;;;;;;17.85;6.70;;;;;;;16.94;74.23;96887.53;4977096;28;20242;-65
2022/04/15 07:52:48;;;;;;;13.02;6.25;;;;;;;16.81;74.06;96892.81;4976032;28;20199;-65
2022/04/15 07:55:14;;;;;;;12.73;6.20;;;;;;;16.80;73.94;96897.31;4976587;28;20207;-65
2022/04/15 07:57:42;;;;;;;16.77;6.90;;;;;;;17.06;73.23;96896.59;4976928;28;20231;-65
2022/04/15 08:00:10;;;;;;;15.00;6.20;;;;;;;17.31;72.52;96894.00;4976604;28;20207;-65
2022/04/15 08:02:37;;;;;;;16.13;6.38;;;;;;;17.20;73.80;96889.22;4975863;28;20246;-65
2022/04/15 08:05:04;;;;;;;13.07;6.75;;;;;;;17.31;74.21;96891.34;4976296;28;20207;-65
2022/04/15 08:07:31;;;;;;;14.98;7.10;;;;;;;17.38;74.69;96894.00;4976470;28;20239;-65
2022/04/15 08:09:57;;;;;;;16.65;7.38;;;;;;;17.41;75.67;96891.78;4976458;28;20210;-65
2022/04/15 08:12:23;;;;;;;15.77;7.10;;;;;;;17.35;72.67;96895.25;4975586;28;20294;-65
2022/04/15 08:14:52;;;;;;;15.27;7.60;;;;;;;17.61;71.72;96891.78;4976396;28;20591;-65
2022/04/15 08:17:19;;;;;;;14.90;6.93;;;;;;;17.44;70.92;96890.56;4976177;28;20230;-65
2022/04/15 08:19:45;;;;;;;16.83;7.13;;;;;;;17.57;69.82;96894.03;4976830;28;20207;-66
2022/04/15 08:22:12;;;;;;;18.25;7.70;;;;;;;17.22;71.50;96892.53;4975872;28;20219;-65
2022/04/15 08:24:42;;;;;;;16.27;7.88;;;;;;;17.78;70.25;96891.16;4975618;28;20227;-65
2022/04/15 08:27:09;;;;;;;14.30;7.32;;;;;;;17.75;69.55;96900.38;4976171;28;21158;-65
2022/04/15 08:29:39;;;;;;;20.80;7.78;;;;;;;17.93;68.62;96889.91;4976171;28;20206;-65
2022/04/15 08:32:08;;;;;;;15.00;7.53;;;;;;;18.00;70.40;96893.41;4975847;28;20199;-64
2022/04/15 08:34:35;;;;;;;15.90;7.47;;;;;;;17.81;70.83;96888.09;4975747;28;20318;-65
2022/04/15 08:37:02;;;;;;;17.38;7.22;;;;;;;18.35;69.37;96890.31;4976250;28;20223;-65
2022/04/15 08:39:29;;;;;;;15.68;8.07;;;;;;;18.32;67.70;96892.56;4975871;28;20214;-65
2022/04/15 08:41:57;;;;;;;13.55;7.07;;;;;;;18.43;68.08;96894.56;4975835;28;20254;-65
2022/04/15 08:44:25;;;;;;;17.17;8.40;;;;;;;18.56;67.34;96895.38;4975151;28;20214;-65
2022/04/15 08:46:52;;;;;;;16.67;8.75;;;;;;;18.82;66.43;96895.28;4975760;28;21339;-65
2022/04/15 08:49:22;;;;;;;17.83;8.98;;;;;;;18.98;67.72;96902.81;4975431;28;20207;-65
2022/04/15 08:51:48;;;;;;;18.05;8.48;;;;;;;18.85;65.34;96897.53;4974866;28;20211;-65
2022/04/15 08:54:15;;;;;;;19.17;9.38;;;;;;;18.42;67.13;96904.44;4975314;28;20579;-64
2022/04/15 08:56:42;;;;;;;19.63;9.52;;;;;;;18.03;65.86;96902.84;4975676;28;20211;-65
2022/04/15 08:59:08;;;;;;;22.05;10.02;;;;;;;18.57;66.61;96901.53;4974817;28;20203;-65
2022/04/15 09:01:35;;;;;;;20.98;9.32;;;;;;;18.82;68.09;96903.28;4975870;28;20231;-65
2022/04/15 09:04:01;;;;;;;18.00;9.10;;;;;;;18.78;64.39;96903.94;4975806;28;20199;-65
2022/04/15 09:06:31;;;;;;;19.98;9.38;;;;;;;18.88;61.90;96889.09;4974989;28;20211;-64
2022/04/15 09:09:06;;;;;;;19.33;9.35;;;;;;;19.06;61.82;96906.06;4974844;28;20826;-65
2022/04/15 09:11:35;;;;;;;16.63;8.82;;;;;;;18.82;62.15;96900.63;4975677;28;20203;-65
2022/04/15 09:14:04;;;;;;;16.65;7.97;;;;;;;18.99;60.75;96896.41;4974848;28;20214;-65
2022/04/15 09:16:31;;;;;;;42.08;16.30;;;;;;;18.50;61.77;96898.88;4975665;28;20206;-66
2022/04/15 09:18:59;;;;;;;27.00;11.05;;;;;;;18.90;61.86;96899.56;4975328;28;20714;-65
2022/04/15 09:21:26;;;;;;;17.05;9.07;;;;;;;19.30;63.96;96900.00;4974939;28;20211;-65
2022/04/15 09:23:55;;;;;;;20.40;8.60;;;;;;;19.82;63.15;96897.78;4974191;28;20206;-65
2022/04/15 09:26:23;;;;;;;17.00;9.00;;;;;;;19.83;63.47;96890.56;4975127;28;20210;-65
2022/04/15 09:28:50;;;;;;;18.17;8.75;;;;;;;19.98;64.47;96894.56;4974996;28;20239;-65
2022/04/15 09:31:18;;;;;;;16.38;7.78;;;;;;;19.92;63.46;96892.78;4975564;28;20206;-65
2022/04/15 09:33:56;;;;;;;18.35;7.75;;;;;;;20.32;61.62;96894.06;4974652;28;20203;-65
2022/04/15 09:36:27;;;;;;;16.20;8.20;;;;;;;20.44;59.48;96892.28;4975093;28;20207;-65
2022/04/15 09:39:01;;;;;;;17.02;8.50;;;;;;;20.40;60.46;96897.28;4974394;28;20888;-65
2022/04/15 09:41:29;;;;;;;15.77;8.80;;;;;;;20.57;60.35;96895.66;4975101;28;20207;-65
2022/04/15 09:43:58;;;;;;;18.10;9.52;;;;;;;20.76;61.12;96893.81;4974344;28;20357;-65
2022/04/15 09:46:26;;;;;;;14.90;8.00;;;;;;;20.25;58.43;96894.13;4974212;28;20207;-65
2022/04/15 09:49:02;;;;;;;16.83;7.93;;;;;;;20.23;56.92;96890.03;4974931;28;20257;-65
2022/04/15 09:51:31;;;;;;;18.95;8.05;;;;;;;19.82;58.90;96889.75;4974801;28;20217;-66
2022/04/15 09:54:01;;;;;;;14.18;7.50;;;;;;;20.32;57.50;96889.50;4973666;28;21352;-64
2022/04/15 09:56:29;;;;;;;13.65;7.07;;;;;;;20.11;58.61;96888.28;4974456;28;20212;-65
2022/04/15 09:58:55;;;;;;;19.75;8.15;;;;;;;20.63;57.21;96886.69;4974574;28;20214;-65
2022/04/15 10:01:26;;;;;;;16.08;6.78;;;;;;;20.59;54.61;96885.50;4974862;28;20672;-65
2022/04/15 10:03:55;;;;;;;18.20;6.95;;;;;;;20.45;55.97;96878.66;4974093;28;20238;-64
2022/04/15 10:06:23;;;;;;;11.77;6.43;;;;;;;21.04;55.08;96882.31;4975358;28;20211;-65
2022/04/15 10:08:51;;;;;;;10.30;6.07;;;;;;;20.65;54.25;96881.16;4974313;28;20653;-65
2022/04/15 10:11:19;;;;;;;14.68;6.80;;;;;;;20.53;54.95;96881.06;4974267;28;20206;-65
2022/04/15 10:13:46;;;;;;;19.02;8.27;;;;;;;20.79;58.93;96874.63;4974347;28;20203;-65
2022/04/15 10:16:13;;;;;;;13.40;7.05;;;;;;;20.99;54.96;96878.66;4974572;28;20207;-65
2022/04/15 10:18:41;;;;;;;10.98;5.10;;;;;;;20.68;54.38;96886.03;4974544;28;20233;-66
2022/04/15 10:21:09;;;;;;;9.30;5.22;;;;;;;20.28;53.29;96882.16;4974817;28;20207;-65
2022/04/15 10:23:36;;;;;;;17.00;6.28;;;;;;;20.21;55.38;96881.38;4973962;28;20573;-65
2022/04/15 10:26:03;;;;;;;11.70;6.05;;;;;;;20.16;52.63;96880.44;4974429;28;21119;-65
2022/04/15 10:28:44;;;;;;;12.35;5.93;;;;;;;20.48;53.15;96880.09;4974805;28;20223;-66
2022/04/15 10:31:13;;;;;;;10.55;6.38;;;;;;;20.04;55.68;96876.84;4974812;28;20575;-65
2022/04/15 10:33:40;;;;;;;11.25;6.82;;;;;;;20.25;54.32;96875.38;4973994;28;20288;-65
2022/04/15 10:36:14;;;;;;;10.95;6.03;;;;;;;20.68;52.48;96873.47;4974548;28;20629;-65
2022/04/15 10:39:12;;;;;;;12.90;6.38;;;;;;;20.34;52.58;96879.41;4974327;28;20241;-66
2022/04/15 10:41:51;;;;;;;12.82;6.10;;;;;;;20.37;53.40;96864.78;4974127;28;21087;-64
2022/04/15 10:44:28;;;;;;;12.30;6.82;;;;;;;21.17;54.56;96871.44;4973860;28;20668;-65
2022/04/15 10:46:59;;;;;;;12.18;5.93;;;;;;;21.02;51.54;96868.31;4974274;28;20318;-65
2022/04/15 10:49:29;;;;;;;12.80;5.65;;;;;;;20.71;51.42;96865.00;4974048;28;20290;-64
2022/04/15 10:52:00;;;;;;;8.63;4.70;;;;;;;21.06;48.83;96852.63;4974086;28;20235;-65
2022/04/15 10:54:40;;;;;;;7.03;4.30;;;;;;;21.12;46.31;96865.13;4972695;28;20207;-65
2022/04/15 10:57:11;;;;;;;8.10;4.35;;;;;;;21.57;47.72;96861.78;4973983;28;20223;-69
2022/04/15 11:02:37;;;;;;;8.57;4.68;;;;;;;22.32;46.55;96851.84;4975560;28;20320;-69
2022/04/15 11:05:05;;;;;;;12.30;5.50;;;;;;;21.32;47.38;96860.28;4975598;28;20207;-68
2022/04/15 11:07:42;;;;;;;9.15;5.25;;;;;;;20.87;50.19;96867.09;4974470;28;20314;-67
2022/04/15 11:10:16;;;;;;;8.70;3.97;;;;;;;20.36;51.23;96863.13;4975988;28;20711;-68
2022/04/15 11:12:44;;;;;;;11.23;5.15;;;;;;;20.10;54.21;96865.25;4975298;28;20199;-68
2022/04/15 11:15:15;;;;;;;8.02;3.70;;;;;;;19.67;49.51;96875.88;4976135;28;20671;-68
2022/04/15 11:17:46;;;;;;;5.55;3.42;;;;;;;19.78;50.32;96864.47;4976216;28;20230;-68
2022/04/15 11:20:13;;;;;;;6.63;3.38;;;;;;;19.73;48.98;96858.16;4975909;28;20242;-67
2022/04/15 11:22:40;;;;;;;6.45;2.50;;;;;;;20.52;46.83;96866.03;4974655;28;20314;-67
2022/04/15 11:25:08;;;;;;;5.10;2.97;;;;;;;21.23;45.04;96862.47;4976546;28;20290;-68
2022/04/15 11:27:35;;;;;;;4.35;2.80;;;;;;;21.63;43.76;96850.16;4976003;28;20310;-68